createdAt,value
2023-02-16T00:00:40.513Z,98587.28
2023-02-16T00:05:42.658Z,98585.13
2023-02-16T00:11:05.887Z,98593.78
2023-02-16T00:16:16.756Z,98597.66
2023-02-16T00:21:19.238Z,98602.34
2023-02-16T00:26:27.146Z,98597.53
2023-02-16T00:31:33.486Z,98591.41
2023-02-16T00:36:35.302Z,98589.84
2023-02-16T00:41:52.320Z,98583.56
2023-02-16T00:46:54.573Z,98589.16
2023-02-16T00:51:57.277Z,98584.00
2023-02-16T00:56:59.333Z,98589.19
2023-02-16T01:02:01.196Z,98582.75
2023-02-16T01:07:41.806Z,98573.00
2023-02-16T01:12:43.573Z,98567.84
2023-02-16T01:17:45.374Z,98562.03
2023-02-16T01:22:47.274Z,98559.94
2023-02-16T01:27:50.397Z,98567.66
2023-02-16T01:32:52.772Z,98565.28
2023-02-16T01:37:54.786Z,98554.94
2023-02-16T01:43:23.108Z,98555.16
2023-02-16T01:48:28.028Z,98546.75
2023-02-16T01:53:33.796Z,98548.97
2023-02-16T01:58:46.055Z,98556.34
2023-02-16T02:04:06.297Z,98549.88
2023-02-16T02:09:36.944Z,98543.75
2023-02-16T02:14:40.307Z,98555.31
2023-02-16T02:20:01.298Z,98550.47
2023-02-16T02:25:25.371Z,98546.91
2023-02-16T02:30:51.886Z,98550.34
2023-02-16T02:36:41.966Z,98548.97
2023-02-16T02:42:07.140Z,98543.91
2023-02-16T02:47:20.336Z,98544.38
2023-02-16T02:52:23.151Z,98551.91
2023-02-16T02:57:53.276Z,98550.75
2023-02-16T03:03:04.572Z,98549.59
2023-02-16T03:08:14.411Z,98549.84
2023-02-16T03:13:22.601Z,98551.50
2023-02-16T03:18:45.572Z,98540.47
2023-02-16T03:24:09.401Z,98551.25
2023-02-16T03:29:17.589Z,98556.72
2023-02-16T03:34:21.451Z,98563.13
2023-02-16T03:39:23.492Z,98552.25
2023-02-16T03:44:25.514Z,98554.94
2023-02-16T03:49:27.348Z,98560.28
2023-02-16T03:54:29.235Z,98554.94
2023-02-16T03:59:31.100Z,98551.63
2023-02-16T04:04:32.987Z,98551.13
2023-02-16T04:09:34.918Z,98553.38
2023-02-16T04:14:36.757Z,98546.19
2023-02-16T04:19:38.633Z,98539.66
2023-02-16T04:24:40.496Z,98544.75
2023-02-16T04:29:42.303Z,98538.50
2023-02-16T04:34:44.149Z,98532.16
2023-02-16T04:39:46.005Z,98534.72
2023-02-16T04:44:47.922Z,98533.56
2023-02-16T04:49:50.396Z,98534.16
2023-02-16T04:54:52.221Z,98538.59
2023-02-16T04:59:54.042Z,98542.91
2023-02-16T05:04:55.905Z,98545.06
2023-02-16T05:09:57.750Z,98541.25
2023-02-16T05:14:59.608Z,98541.31
2023-02-16T05:20:02.021Z,98554.25
2023-02-16T05:25:04.189Z,98558.09
2023-02-16T05:30:06.752Z,98558.38
2023-02-16T05:35:08.612Z,98550.44
2023-02-16T05:40:11.060Z,98550.34
2023-02-16T05:45:12.886Z,98542.97
2023-02-16T05:50:14.696Z,98548.94
2023-02-16T05:55:16.559Z,98558.59
2023-02-16T06:00:18.820Z,98549.81
2023-02-16T06:05:20.610Z,98552.50
2023-02-16T06:10:22.471Z,98547.00
2023-02-16T06:15:24.236Z,98551.72
2023-02-16T06:20:26.169Z,98553.06
2023-02-16T06:25:28.009Z,98544.34
2023-02-16T06:30:30.374Z,98545.50
2023-02-16T06:35:32.270Z,98545.19
2023-02-16T06:40:34.079Z,98548.75
2023-02-16T06:45:35.873Z,98559.13
2023-02-16T06:50:37.864Z,98559.13
2023-02-16T06:55:39.673Z,98564.25
2023-02-16T07:00:41.522Z,98563.97
2023-02-16T07:05:44.200Z,98568.38
2023-02-16T07:10:50.516Z,98565.41
2023-02-16T07:15:52.511Z,98565.22
2023-02-16T07:20:54.375Z,98563.91
2023-02-16T07:25:56.176Z,98554.38
2023-02-16T07:30:58.181Z,98559.56
2023-02-16T07:36:00.092Z,98564.63
2023-02-16T07:41:02.705Z,98562.47
2023-02-16T07:46:05.532Z,98568.84
2023-02-16T07:51:07.742Z,98567.13
2023-02-16T07:56:18.457Z,98563.44
2023-02-16T08:01:21.543Z,98554.41
2023-02-16T08:06:26.183Z,98565.88
2023-02-16T08:11:28.032Z,98563.53
2023-02-16T08:16:30.245Z,98563.00
2023-02-16T08:21:34.310Z,98561.78
2023-02-16T08:26:39.711Z,98557.31
2023-02-16T08:31:42.192Z,98554.44
2023-02-16T08:36:45.948Z,98560.25
2023-02-16T08:41:49.839Z,98553.50
2023-02-16T08:46:54.215Z,98555.00
2023-02-16T08:51:58.463Z,98553.00
2023-02-16T08:57:02.775Z,98550.72
2023-02-16T09:02:04.705Z,98555.38
2023-02-16T09:07:06.550Z,98553.91
2023-02-16T09:12:10.767Z,98547.84
2023-02-16T09:17:12.541Z,98558.38
2023-02-16T09:22:15.357Z,98557.44
2023-02-16T09:27:17.127Z,98561.53
2023-02-16T09:32:18.927Z,98563.78
2023-02-16T09:37:20.942Z,98565.03
2023-02-16T09:42:40.823Z,98570.78
2023-02-16T09:47:48.070Z,98570.03
2023-02-16T09:52:58.423Z,98578.53
2023-02-16T09:58:12.937Z,98582.97
2023-02-16T10:03:34.147Z,98571.78
2023-02-16T10:08:41.105Z,98569.81
2023-02-16T10:13:54.216Z,98574.56
2023-02-16T10:18:58.501Z,98562.13
2023-02-16T10:24:06.686Z,98564.81
2023-02-16T10:29:13.190Z,98561.38
2023-02-16T10:34:18.232Z,98556.13
2023-02-16T10:39:33.356Z,98562.13
2023-02-16T10:44:40.326Z,98546.63
2023-02-16T10:49:42.246Z,98547.84
2023-02-16T10:54:44.139Z,98546.44
2023-02-16T10:59:47.293Z,98542.34
2023-02-16T11:04:52.643Z,98540.59
2023-02-16T11:09:57.681Z,98533.88
2023-02-16T11:15:08.173Z,98531.31
2023-02-16T11:20:28.900Z,98538.53
2023-02-16T11:25:30.731Z,98524.47
2023-02-16T11:30:35.488Z,98530.44
2023-02-16T11:35:43.649Z,98519.16
2023-02-16T11:40:53.006Z,98505.19
2023-02-16T11:46:10.070Z,98509.34
2023-02-16T11:51:19.249Z,98511.66
2023-02-16T11:56:27.947Z,98507.84
2023-02-16T12:02:17.470Z,98495.66
2023-02-16T12:07:23.329Z,98498.38
2023-02-16T12:12:43.712Z,98499.72
2023-02-16T12:18:24.012Z,98494.00
2023-02-16T12:23:25.834Z,98499.69
2023-02-16T12:28:42.844Z,98488.75
2023-02-16T12:33:51.860Z,98474.94
2023-02-16T12:39:03.346Z,98479.91
2023-02-16T12:44:14.188Z,98477.38
2023-02-16T12:49:28.183Z,98479.47
2023-02-16T12:54:50.773Z,98478.16
2023-02-16T13:00:04.851Z,98473.94
2023-02-16T13:05:11.666Z,98466.22
2023-02-16T13:11:01.273Z,98473.34
2023-02-16T13:16:30.601Z,98459.69
2023-02-16T13:21:54.664Z,98459.44
2023-02-16T13:27:20.942Z,98457.38
2023-02-16T13:32:22.926Z,98466.25
2023-02-16T13:37:46.801Z,98460.84
2023-02-16T13:43:08.976Z,98461.50
2023-02-16T13:48:25.391Z,98457.44
2023-02-16T13:53:35.011Z,98462.78
2023-02-16T13:58:36.859Z,98459.06
2023-02-16T14:03:38.951Z,98461.53
2023-02-16T14:08:42.414Z,98449.34
2023-02-16T14:13:48.626Z,98447.56
2023-02-16T14:19:01.649Z,98446.09
2023-02-16T14:24:06.437Z,98441.72
2023-02-16T14:29:56.772Z,98459.72
2023-02-16T14:35:21.505Z,98457.16
2023-02-16T14:40:35.666Z,98465.56
2023-02-16T14:45:56.191Z,98456.44
2023-02-16T14:51:16.672Z,98449.84
2023-02-16T14:56:39.199Z,98465.28
2023-02-16T15:01:43.608Z,98456.53
2023-02-16T15:06:47.628Z,98462.06
2023-02-16T15:12:14.112Z,98462.06
2023-02-16T15:17:25.213Z,98458.91
2023-02-16T15:22:27.206Z,98460.66
2023-02-16T15:27:29.820Z,98449.34
2023-02-16T15:32:33.357Z,98455.28
2023-02-16T15:37:37.906Z,98443.41
2023-02-16T15:42:44.165Z,98448.59
2023-02-16T15:47:47.033Z,98448.06
2023-02-16T15:52:49.009Z,98443.16
2023-02-16T15:57:51.273Z,98445.34
2023-02-16T16:02:59.249Z,98436.88
2023-02-16T16:08:02.626Z,98444.84
2023-02-16T16:13:07.390Z,98440.97
2023-02-16T16:18:37.540Z,98432.03
2023-02-16T16:23:39.773Z,98431.53
2023-02-16T16:28:41.810Z,98449.69
2023-02-16T16:34:03.576Z,98444.94
2023-02-16T16:39:11.618Z,98436.34
2023-02-16T16:45:00.864Z,98430.50
2023-02-16T16:50:14.529Z,98423.41
2023-02-16T16:55:19.717Z,98418.25
2023-02-16T17:00:25.022Z,98424.94
2023-02-16T17:05:26.937Z,98427.78
2023-02-16T17:10:29.615Z,98432.28
2023-02-16T17:15:45.860Z,98433.25
2023-02-16T17:20:48.335Z,98434.19
2023-02-16T17:25:50.992Z,98450.25
2023-02-16T17:30:52.832Z,98445.63
2023-02-16T17:35:55.140Z,98449.16
2023-02-16T17:40:58.150Z,98449.56
2023-02-16T17:46:04.880Z,98450.34
2023-02-16T17:51:14.999Z,98457.25
2023-02-16T17:56:20.309Z,98457.78
2023-02-16T18:01:22.505Z,98471.13
2023-02-16T18:06:29.151Z,98475.31
2023-02-16T18:11:31.136Z,98484.09
2023-02-16T18:16:33.227Z,98488.16
2023-02-16T18:21:35.392Z,98470.22
2023-02-16T18:26:37.829Z,98464.50
2023-02-16T18:31:42.503Z,98458.09
2023-02-16T18:36:44.473Z,98447.94
2023-02-16T18:41:46.290Z,98461.69
2023-02-16T18:46:48.245Z,98463.97
2023-02-16T18:51:50.111Z,98473.81
2023-02-16T18:56:52.087Z,98476.00
2023-02-16T19:01:56.373Z,98470.81
2023-02-16T19:06:58.739Z,98483.59
2023-02-16T19:12:00.693Z,98480.88
2023-02-16T19:17:02.769Z,98464.94
2023-02-16T19:22:04.993Z,98455.00
2023-02-16T19:27:06.893Z,98450.81
2023-02-16T19:32:08.837Z,98452.16
2023-02-16T19:37:10.763Z,98456.78
2023-02-16T19:42:12.724Z,98445.06
2023-02-16T19:47:14.588Z,98455.78
2023-02-16T19:52:17.374Z,98462.31
2023-02-16T19:57:19.377Z,98450.06
2023-02-16T20:02:21.301Z,98445.44
2023-02-16T20:07:23.230Z,98434.84
2023-02-16T20:12:27.959Z,98432.25
2023-02-16T20:17:29.751Z,98422.09
2023-02-16T20:22:31.574Z,98423.03
2023-02-16T20:27:33.469Z,98415.16
2023-02-16T20:32:35.356Z,98414.59
2023-02-16T20:37:37.179Z,98415.66
2023-02-16T20:42:39.023Z,98406.38
2023-02-16T20:47:40.820Z,98402.66
2023-02-16T20:52:42.677Z,98393.53
2023-02-16T20:57:44.514Z,98404.13
2023-02-16T21:02:46.399Z,98397.03
2023-02-16T21:07:49.955Z,98394.19
2023-02-16T21:12:51.926Z,98390.75
2023-02-16T21:17:53.780Z,98387.88
2023-02-16T21:22:55.670Z,98386.81
2023-02-16T21:27:57.532Z,98391.31
2023-02-16T21:32:59.341Z,98380.22
2023-02-16T21:38:01.468Z,98368.63
2023-02-16T21:43:03.279Z,98352.81
2023-02-16T21:48:23.587Z,98353.69
2023-02-16T21:53:25.450Z,98363.34
2023-02-16T21:58:27.198Z,98350.28
2023-02-16T22:03:29.161Z,98343.47
2023-02-16T22:08:33.167Z,98341.00
2023-02-16T22:13:41.763Z,98332.84
2023-02-16T22:18:43.829Z,98337.50
2023-02-16T22:23:45.641Z,98334.34
2023-02-16T22:28:47.464Z,98324.00
2023-02-16T22:33:58.740Z,98318.50
2023-02-16T22:39:00.606Z,98316.63
2023-02-16T22:44:02.654Z,98305.72
2023-02-16T22:49:04.469Z,98299.88
2023-02-16T22:54:07.763Z,98296.19
2023-02-16T22:59:11.189Z,98294.44
2023-02-16T23:04:15.493Z,98284.47
2023-02-16T23:09:19.982Z,98274.47
2023-02-16T23:14:21.794Z,98274.03
2023-02-16T23:19:26.196Z,98278.50
2023-02-16T23:24:28.215Z,98289.59
2023-02-16T23:29:30.216Z,98284.09
2023-02-16T23:34:32.013Z,98277.97
2023-02-16T23:39:33.797Z,98283.97
2023-02-16T23:44:35.601Z,98287.00
2023-02-16T23:49:37.421Z,98278.88
2023-02-16T23:54:39.309Z,98273.44
2023-02-16T23:59:41.667Z,98273.22
